createdAt,value
2018-09-06T00:01:01.127Z,10.30
2018-09-06T00:03:28.645Z,10.30
2018-09-06T00:05:56.249Z,10.57
2018-09-06T00:08:24.121Z,10.17
2018-09-06T00:10:51.671Z,11.10
2018-09-06T00:13:19.279Z,10.00
2018-09-06T00:15:47.076Z,9.67
2018-09-06T00:18:14.650Z,9.73
2018-09-06T00:20:42.190Z,10.60
2018-09-06T00:23:09.762Z,9.20
2018-09-06T00:25:37.626Z,12.20
2018-09-06T00:28:05.433Z,9.83
2018-09-06T00:30:32.985Z,9.50
2018-09-06T00:33:00.428Z,10.67
2018-09-06T00:35:28.079Z,10.90
2018-09-06T00:37:55.991Z,10.07
2018-09-06T00:40:23.667Z,9.47
2018-09-06T00:42:51.170Z,9.73
2018-09-06T00:45:19.352Z,10.57
2018-09-06T00:47:46.882Z,10.30
2018-09-06T00:50:15.411Z,10.30
2018-09-06T00:52:42.862Z,9.97
2018-09-06T00:55:10.500Z,10.70
2018-09-06T00:57:37.995Z,10.47
2018-09-06T01:00:05.543Z,10.50
2018-09-06T01:02:33.056Z,11.00
2018-09-06T01:05:00.592Z,10.83
2018-09-06T01:07:28.110Z,10.60
2018-09-06T01:09:55.660Z,10.73
2018-09-06T01:12:23.443Z,11.67
2018-09-06T01:14:50.961Z,11.30
2018-09-06T01:17:18.455Z,11.50
2018-09-06T01:19:46.048Z,9.83
2018-09-06T01:22:13.626Z,10.30
2018-09-06T01:24:41.424Z,10.60
2018-09-06T01:27:08.968Z,9.93
2018-09-06T01:29:36.459Z,10.03
2018-09-06T01:32:03.921Z,11.57
2018-09-06T01:34:31.743Z,9.90
2018-09-06T01:36:59.351Z,10.73
2018-09-06T01:39:26.787Z,10.60
2018-09-06T01:41:54.693Z,10.27
2018-09-06T01:44:22.256Z,9.40
2018-09-06T01:46:49.841Z,9.40
2018-09-06T01:49:17.684Z,10.77
2018-09-06T01:51:45.311Z,10.37
2018-09-06T01:54:12.799Z,9.90
2018-09-06T01:56:40.258Z,10.47
2018-09-06T01:59:07.739Z,9.53
2018-09-06T02:01:35.464Z,10.40
2018-09-06T02:04:03.028Z,10.47
2018-09-06T02:06:30.596Z,10.10
2018-09-06T02:08:58.231Z,10.80
2018-09-06T02:11:25.912Z,10.10
2018-09-06T02:13:53.423Z,10.20
2018-09-06T02:16:20.877Z,10.97
2018-09-06T02:18:48.539Z,10.13
2018-09-06T02:21:16.032Z,11.63
2018-09-06T02:23:43.526Z,9.47
2018-09-06T02:26:11.016Z,10.87
2018-09-06T02:28:38.643Z,12.10
2018-09-06T02:31:06.513Z,11.37
2018-09-06T02:33:33.963Z,10.80
2018-09-06T02:36:01.648Z,10.07
2018-09-06T02:38:29.213Z,10.73
2018-09-06T02:40:56.764Z,11.07
2018-09-06T02:43:24.507Z,10.73
2018-09-06T02:45:52.064Z,11.17
2018-09-06T02:48:24.091Z,11.17
2018-09-06T02:51:23.881Z,12.17
2018-09-06T02:53:51.411Z,11.50
2018-09-06T02:56:18.872Z,12.30
2018-09-06T02:58:46.741Z,11.10
2018-09-06T03:01:14.202Z,11.63
2018-09-06T03:03:41.682Z,10.20
2018-09-06T03:06:09.303Z,11.63
2018-09-06T03:08:36.875Z,11.23
2018-09-06T03:11:23.035Z,12.00
2018-09-06T03:13:50.860Z,11.80
2018-09-06T03:16:18.372Z,11.13
2018-09-06T03:18:45.849Z,11.03
2018-09-06T03:21:13.511Z,11.37
2018-09-06T03:23:41.551Z,12.57
2018-09-06T03:26:15.042Z,11.00
2018-09-06T03:28:43.153Z,11.50
2018-09-06T03:31:10.740Z,11.10
2018-09-06T03:33:38.435Z,12.90
2018-09-06T03:36:06.048Z,11.40
2018-09-06T03:38:33.702Z,12.03
2018-09-06T03:41:01.303Z,12.40
2018-09-06T03:43:28.980Z,11.10
2018-09-06T03:45:56.862Z,11.53
2018-09-06T03:48:24.619Z,12.00
2018-09-06T03:50:52.252Z,11.90
2018-09-06T03:53:20.077Z,13.50
2018-09-06T03:55:48.020Z,12.30
2018-09-06T03:58:15.675Z,11.97
2018-09-06T04:00:43.520Z,13.00
2018-09-06T04:03:11.520Z,12.17
2018-09-06T04:05:39.289Z,12.00
2018-09-06T04:08:07.024Z,13.10
2018-09-06T04:10:34.796Z,11.27
2018-09-06T04:13:02.484Z,14.03
2018-09-06T04:15:29.971Z,11.80
2018-09-06T04:17:57.987Z,12.10
2018-09-06T04:20:25.692Z,12.00
2018-09-06T04:22:53.250Z,12.50
2018-09-06T04:25:21.275Z,11.60
2018-09-06T04:27:49.339Z,11.93
2018-09-06T04:30:16.914Z,12.00
2018-09-06T04:32:44.386Z,12.70
2018-09-06T04:35:12.097Z,11.13
2018-09-06T04:37:40.033Z,11.10
2018-09-06T04:40:07.836Z,12.73
2018-09-06T04:42:35.552Z,12.13
2018-09-06T04:45:03.252Z,12.30
2018-09-06T04:47:30.885Z,13.20
2018-09-06T04:49:58.508Z,12.67
2018-09-06T04:52:26.236Z,13.10
2018-09-06T04:54:53.848Z,13.10
2018-09-06T04:57:21.329Z,13.13
2018-09-06T04:59:48.832Z,13.60
2018-09-06T05:02:16.608Z,12.83
2018-09-06T05:04:44.121Z,13.83
2018-09-06T05:07:11.596Z,13.00
2018-09-06T05:09:39.286Z,13.23
2018-09-06T05:12:07.461Z,13.03
2018-09-06T05:14:35.060Z,13.37
2018-09-06T05:17:02.965Z,13.17
2018-09-06T05:19:30.649Z,13.33
2018-09-06T05:21:58.331Z,13.60
2018-09-06T05:24:25.903Z,13.37
2018-09-06T05:26:53.820Z,13.37
2018-09-06T05:29:21.640Z,13.17
2018-09-06T05:31:49.604Z,13.93
2018-09-06T05:34:17.261Z,13.70
2018-09-06T05:36:44.940Z,13.30
2018-09-06T05:39:13.058Z,13.87
2018-09-06T05:41:41.096Z,13.93
2018-09-06T05:44:09.296Z,13.03
2018-09-06T05:46:37.240Z,13.43
2018-09-06T05:49:05.088Z,14.53
2018-09-06T05:51:32.680Z,13.80
2018-09-06T05:54:00.538Z,13.80
2018-09-06T05:56:28.285Z,14.30
2018-09-06T05:58:55.889Z,13.60
2018-09-06T06:01:23.521Z,14.77
2018-09-06T06:03:51.205Z,14.63
2018-09-06T06:06:18.912Z,15.00
2018-09-06T06:08:47.976Z,14.50
2018-09-06T06:11:16.028Z,15.67
2018-09-06T06:13:43.604Z,13.67
2018-09-06T06:16:12.377Z,15.77
2018-09-06T06:18:40.011Z,15.50
2018-09-06T06:21:07.696Z,15.70
2018-09-06T06:23:35.431Z,14.73
2018-09-06T06:26:03.037Z,14.60
2018-09-06T06:28:30.916Z,15.60
2018-09-06T06:30:58.549Z,14.53
2018-09-06T06:33:26.128Z,13.40
2018-09-06T06:35:53.690Z,14.73
2018-09-06T06:38:21.571Z,15.00
2018-09-06T06:40:49.275Z,14.07
2018-09-06T06:43:16.780Z,13.30
2018-09-06T06:45:44.272Z,14.03
2018-09-06T06:48:11.888Z,14.20
2018-09-06T06:50:39.392Z,16.27
2018-09-06T06:53:06.929Z,13.97
2018-09-06T06:55:34.548Z,14.50
2018-09-06T06:58:02.188Z,14.50
2018-09-06T07:00:34.309Z,12.93
2018-09-06T07:03:02.265Z,12.77
2018-09-06T07:05:30.714Z,13.43
2018-09-06T07:07:58.260Z,13.73
2018-09-06T07:10:25.809Z,14.00
2018-09-06T07:12:53.680Z,13.57
2018-09-06T07:15:21.181Z,12.80
2018-09-06T07:17:48.683Z,18.67
2018-09-06T07:20:16.189Z,14.57
2018-09-06T07:22:43.708Z,13.73
2018-09-06T07:25:15.749Z,12.80
2018-09-06T07:27:43.312Z,13.70
2018-09-06T07:30:11.040Z,14.10
2018-09-06T07:32:38.600Z,14.07
2018-09-06T07:35:06.357Z,15.90
2018-09-06T07:37:33.801Z,14.53
2018-09-06T07:40:01.569Z,15.67
2018-09-06T07:42:29.047Z,12.80
2018-09-06T07:44:56.636Z,13.80
2018-09-06T07:47:24.159Z,14.20
2018-09-06T07:49:51.673Z,13.60
2018-09-06T07:52:19.289Z,13.87
2018-09-06T07:54:46.955Z,15.20
2018-09-06T07:57:14.544Z,12.80
2018-09-06T07:59:42.009Z,13.60
2018-09-06T08:02:09.543Z,14.23
2018-09-06T08:04:37.496Z,13.70
2018-09-06T08:07:05.430Z,13.33
2018-09-06T08:09:33.037Z,13.60
2018-09-06T08:12:00.717Z,13.50
2018-09-06T08:14:28.322Z,12.67
2018-09-06T08:16:55.960Z,12.60
2018-09-06T08:19:23.953Z,12.87
2018-09-06T08:21:51.725Z,13.13
2018-09-06T08:24:19.448Z,12.90
2018-09-06T08:26:46.936Z,13.40
2018-09-06T08:29:14.528Z,14.40
2018-09-06T08:31:42.048Z,12.50
2018-09-06T08:34:09.617Z,12.13
2018-09-06T08:36:37.344Z,12.97
2018-09-06T08:39:07.940Z,12.60
2018-09-06T08:41:35.629Z,12.57
2018-09-06T08:44:03.367Z,11.67
2018-09-06T08:46:33.131Z,11.37
2018-09-06T08:49:00.909Z,10.57
2018-09-06T08:51:28.972Z,11.53
2018-09-06T08:53:56.684Z,13.30
2018-09-06T08:56:31.842Z,12.27
2018-09-06T08:58:59.673Z,11.67
2018-09-06T09:01:32.832Z,12.27
2018-09-06T09:04:00.331Z,11.13
2018-09-06T09:06:27.936Z,11.60
2018-09-06T09:08:55.512Z,12.43
2018-09-06T09:11:23.023Z,11.50
2018-09-06T09:13:50.682Z,11.53
2018-09-06T09:16:18.224Z,10.97
2018-09-06T09:18:45.845Z,11.30
2018-09-06T09:21:13.451Z,12.27
2018-09-06T09:23:41.020Z,10.80
2018-09-06T09:26:08.670Z,11.00
2018-09-06T09:28:36.255Z,11.40
2018-09-06T09:31:03.763Z,11.30
2018-09-06T09:33:31.312Z,11.13
2018-09-06T09:35:59.045Z,10.33
2018-09-06T09:38:26.577Z,9.90
2018-09-06T09:40:54.072Z,11.20
2018-09-06T09:43:21.744Z,9.93
2018-09-06T09:45:49.283Z,10.50
2018-09-06T09:48:16.897Z,10.20
2018-09-06T09:53:11.861Z,9.80
2018-09-06T09:55:40.538Z,10.20
2018-09-06T09:58:08.508Z,10.93
2018-09-06T10:00:39.025Z,9.53
2018-09-06T10:03:13.558Z,10.23
2018-09-06T10:05:48.657Z,10.73
2018-09-06T10:08:21.996Z,9.23
2018-09-06T10:10:49.872Z,10.20
2018-09-06T10:13:17.855Z,10.17
2018-09-06T10:15:45.433Z,11.17
2018-09-06T10:18:13.319Z,10.40
2018-09-06T10:20:40.988Z,10.00
2018-09-06T10:23:08.559Z,10.13
2018-09-06T10:25:36.260Z,9.17
2018-09-06T10:28:08.415Z,10.17
2018-09-06T10:30:36.097Z,9.53
2018-09-06T10:33:04.434Z,9.00
2018-09-06T10:35:32.321Z,10.27
2018-09-06T10:37:59.972Z,9.33
2018-09-06T10:40:27.888Z,8.73
2018-09-06T10:42:55.623Z,10.03
2018-09-06T10:45:23.164Z,9.37
2018-09-06T10:47:51.006Z,9.37
2018-09-06T10:50:18.549Z,9.40
2018-09-06T10:52:46.695Z,8.20
2018-09-06T10:55:14.202Z,8.90
2018-09-06T10:57:41.921Z,10.63
2018-09-06T11:00:09.780Z,9.00
2018-09-06T11:02:37.391Z,9.47
2018-09-06T11:05:05.344Z,9.60
2018-09-06T11:07:32.911Z,8.77
2018-09-06T11:10:00.435Z,8.23
2018-09-06T11:12:27.940Z,10.03
2018-09-06T11:14:55.452Z,9.13
2018-09-06T11:17:23.078Z,9.10
2018-09-06T11:19:50.781Z,8.77
2018-09-06T11:22:18.516Z,9.50
2018-09-06T11:24:45.797Z,10.37
2018-09-06T11:27:13.400Z,9.47
2018-09-06T11:29:40.852Z,9.17
2018-09-06T11:32:08.324Z,9.00
2018-09-06T11:34:35.893Z,8.37
2018-09-06T11:37:03.547Z,8.70
2018-09-06T11:39:31.081Z,9.00
2018-09-06T11:41:58.715Z,7.50
2018-09-06T11:44:26.216Z,8.43
2018-09-06T11:46:54.183Z,8.70
2018-09-06T11:49:21.669Z,7.90
2018-09-06T11:51:49.219Z,9.27
2018-09-06T11:54:16.705Z,8.40
2018-09-06T11:56:44.410Z,9.13
2018-09-06T11:59:12.042Z,8.50
2018-09-06T12:01:39.588Z,8.67
2018-09-06T12:04:07.332Z,8.67
2018-09-06T12:06:34.807Z,8.33
2018-09-06T12:09:03.365Z,8.77
2018-09-06T12:11:30.975Z,8.90
2018-09-06T12:13:58.567Z,8.50
2018-09-06T12:16:26.072Z,8.23
2018-09-06T12:18:53.564Z,8.47
2018-09-06T12:21:21.080Z,8.13
2018-09-06T12:23:48.644Z,8.50
2018-09-06T12:26:16.128Z,8.57
2018-09-06T12:28:43.580Z,8.70
2018-09-06T12:31:11.513Z,8.03
2018-09-06T12:33:39.440Z,7.47
2018-09-06T12:36:07.213Z,8.57
2018-09-06T12:38:34.925Z,8.17
2018-09-06T12:41:02.483Z,9.00
2018-09-06T12:43:30.207Z,8.70
2018-09-06T12:45:58.230Z,8.93
2018-09-06T12:48:25.784Z,8.13
2018-09-06T12:50:53.347Z,9.57
2018-09-06T12:53:21.247Z,8.30
2018-09-06T12:55:48.716Z,8.60
2018-09-06T12:58:16.255Z,9.17
2018-09-06T13:00:43.753Z,9.40
2018-09-06T13:03:11.272Z,10.33
2018-09-06T13:05:38.815Z,9.00
2018-09-06T13:08:06.419Z,10.57
2018-09-06T13:10:34.435Z,11.40
2018-09-06T13:13:01.988Z,12.10
2018-09-06T13:15:29.462Z,15.57
2018-09-06T13:17:56.933Z,16.50
2018-09-06T13:20:24.447Z,14.80
2018-09-06T13:22:52.041Z,17.20
2018-09-06T13:25:19.835Z,16.97
2018-09-06T13:27:47.479Z,18.50
2018-09-06T13:30:14.973Z,17.10
2018-09-06T13:32:43.446Z,19.00
2018-09-06T13:35:10.947Z,19.77
2018-09-06T13:37:38.395Z,19.10
2018-09-06T13:40:05.894Z,21.00
2018-09-06T13:42:33.632Z,20.40
2018-09-06T13:45:01.115Z,21.00
2018-09-06T13:47:28.776Z,20.80
2018-09-06T13:49:56.355Z,21.33
2018-09-06T13:52:24.022Z,20.80
2018-09-06T13:54:51.520Z,21.43
2018-09-06T13:57:19.030Z,23.37
2018-09-06T13:59:46.551Z,22.63
2018-09-06T14:02:14.100Z,22.90
2018-09-06T14:04:41.698Z,23.13
2018-09-06T14:07:09.104Z,24.90
2018-09-06T14:09:36.735Z,23.80
2018-09-06T14:12:05.194Z,23.37
2018-09-06T14:14:33.176Z,24.60
2018-09-06T14:17:01.217Z,25.00
2018-09-06T14:19:28.676Z,25.00
2018-09-06T14:21:56.560Z,26.40
2018-09-06T14:24:24.283Z,26.70
2018-09-06T14:26:51.783Z,24.73
2018-09-06T14:29:19.321Z,24.13
2018-09-06T14:31:47.083Z,27.10
2018-09-06T14:34:14.592Z,25.50
2018-09-06T14:36:42.151Z,25.37
2018-09-06T14:39:09.812Z,25.37
2018-09-06T14:41:37.487Z,26.80
2018-09-06T14:44:05.201Z,27.87
2018-09-06T14:46:32.911Z,25.53
2018-09-06T14:49:00.637Z,26.73
2018-09-06T14:51:28.800Z,24.57
2018-09-06T14:53:57.093Z,25.97
2018-09-06T14:56:24.996Z,27.10
2018-09-06T14:58:52.719Z,27.20
2018-09-06T15:01:20.684Z,28.53
2018-09-06T15:03:48.581Z,24.23
2018-09-06T15:06:16.596Z,25.97
2018-09-06T15:08:44.396Z,29.87
2018-09-06T15:11:12.431Z,28.23
2018-09-06T15:13:40.550Z,29.73
2018-09-06T15:16:08.044Z,28.90
2018-09-06T15:18:35.612Z,29.50
2018-09-06T15:21:03.243Z,29.77
2018-09-06T15:23:30.760Z,26.20
2018-09-06T15:25:58.255Z,28.60
2018-09-06T15:28:25.874Z,28.60
2018-09-06T15:30:53.343Z,26.33
2018-09-06T15:33:21.087Z,27.50
2018-09-06T15:35:48.788Z,23.87
2018-09-06T15:38:16.520Z,25.60
2018-09-06T15:40:44.232Z,25.70
2018-09-06T15:43:12.048Z,22.87
2018-09-06T15:45:39.761Z,24.60
2018-09-06T15:48:07.463Z,24.47
2018-09-06T15:50:35.043Z,22.93
2018-09-06T15:53:02.804Z,24.50
2018-09-06T15:55:30.700Z,24.43
2018-09-06T15:57:58.280Z,25.27
2018-09-06T16:00:25.840Z,24.40
2018-09-06T16:02:53.441Z,24.30
2018-09-06T16:05:21.035Z,26.20
2018-09-06T16:07:48.562Z,26.90
2018-09-06T16:10:16.209Z,26.13
2018-09-06T16:12:43.843Z,27.47
2018-09-06T16:15:11.479Z,26.00
2018-09-06T16:17:39.203Z,28.27
2018-09-06T16:20:07.072Z,29.33
2018-09-06T16:22:34.947Z,30.50
2018-09-06T16:25:02.655Z,27.90
2018-09-06T16:27:30.167Z,28.33
2018-09-06T16:29:57.839Z,30.23
2018-09-06T16:32:25.519Z,31.00
2018-09-06T16:34:53.224Z,27.93
2018-09-06T16:37:21.057Z,30.43
2018-09-06T16:39:49.501Z,31.67
2018-09-06T16:42:17.460Z,32.70
2018-09-06T16:44:45.156Z,31.70
2018-09-06T16:47:13.132Z,34.10
2018-09-06T16:49:40.795Z,34.07
2018-09-06T16:52:08.391Z,31.80
2018-09-06T16:54:36.179Z,30.57
2018-09-06T16:57:05.096Z,35.97
2018-09-06T16:59:32.677Z,34.23
2018-09-06T17:02:01.280Z,34.00
2018-09-06T17:04:30.336Z,34.30
2018-09-06T17:06:59.327Z,34.00
2018-09-06T17:09:28.663Z,34.63
2018-09-06T17:11:57.905Z,35.20
2018-09-06T17:14:25.462Z,35.30
2018-09-06T17:16:53.540Z,36.40
2018-09-06T17:19:22.277Z,37.93
2018-09-06T17:21:50.688Z,38.17
2018-09-06T17:24:19.001Z,38.70
2018-09-06T17:26:47.771Z,37.13
2018-09-06T17:29:16.633Z,37.60
2018-09-06T17:31:45.082Z,36.93
2018-09-06T17:34:14.411Z,36.80
2018-09-06T17:36:43.029Z,37.37
2018-09-06T17:39:13.416Z,34.93
2018-09-06T17:41:42.389Z,37.77
2018-09-06T17:44:11.099Z,36.30
2018-09-06T17:46:41.431Z,36.20
2018-09-06T17:49:11.966Z,37.40
2018-09-06T17:51:39.552Z,35.83
2018-09-06T17:54:07.079Z,36.90
2018-09-06T17:56:36.052Z,36.50
2018-09-06T17:59:04.235Z,33.30
2018-09-06T18:01:33.176Z,36.53
2018-09-06T18:04:01.780Z,40.00
2018-09-06T18:06:29.330Z,36.30
2018-09-06T18:08:56.955Z,38.70
2018-09-06T18:11:24.863Z,34.40
2018-09-06T18:13:52.450Z,35.88
2018-09-06T18:16:23.370Z,36.60
2018-09-06T18:18:51.999Z,38.50
2018-09-06T18:21:20.429Z,36.67
2018-09-06T18:23:48.636Z,34.63
2018-09-06T18:26:16.332Z,35.07
2018-09-06T18:28:44.400Z,36.47
2018-09-06T18:31:12.020Z,37.70
2018-09-06T18:33:39.688Z,35.93
2018-09-06T18:36:07.435Z,36.70
2018-09-06T18:38:34.974Z,37.07
2018-09-06T18:41:02.508Z,39.73
2018-09-06T18:43:30.239Z,37.63
2018-09-06T18:45:58.010Z,40.47
2018-09-06T18:48:25.691Z,43.57
2018-09-06T18:50:53.600Z,37.83
2018-09-06T18:53:21.193Z,41.73
2018-09-06T18:55:48.652Z,41.50
2018-09-06T18:58:16.276Z,40.00
2018-09-06T19:00:43.850Z,43.70
2018-09-06T19:03:11.582Z,42.70
2018-09-06T19:05:40.206Z,42.67
2018-09-06T19:08:07.926Z,43.77
2018-09-06T19:10:35.600Z,44.37
2018-09-06T19:13:03.093Z,40.40
2018-09-06T19:15:30.839Z,41.93
2018-09-06T19:17:58.472Z,40.40
2018-09-06T19:20:25.962Z,42.80
2018-09-06T19:22:53.583Z,43.80
2018-09-06T19:25:21.708Z,46.17
2018-09-06T19:27:49.352Z,48.80
2018-09-06T19:30:17.084Z,43.17
2018-09-06T19:32:44.590Z,41.60
2018-09-06T19:35:12.232Z,42.73
2018-09-06T19:37:40.060Z,45.93
2018-09-06T19:40:07.756Z,46.97
2018-09-06T19:42:35.306Z,46.50
2018-09-06T19:45:02.949Z,45.27
2018-09-06T19:47:30.604Z,46.10
2018-09-06T19:49:58.224Z,49.03
2018-09-06T19:52:26.970Z,49.67
2018-09-06T19:54:54.564Z,46.27
2018-09-06T19:57:22.271Z,49.63
2018-09-06T19:59:50.205Z,47.47
2018-09-06T20:02:17.728Z,48.80
2018-09-06T20:04:45.187Z,45.07
2018-09-06T20:07:12.672Z,48.03
2018-09-06T20:09:40.176Z,51.33
2018-09-06T20:12:07.686Z,47.43
2018-09-06T20:14:35.238Z,52.33
2018-09-06T20:17:03.078Z,52.17
2018-09-06T20:19:30.692Z,51.93
2018-09-06T20:21:58.195Z,53.03
2018-09-06T20:24:25.716Z,51.60
2018-09-06T20:26:53.312Z,49.63
2018-09-06T20:29:20.930Z,53.40
2018-09-06T20:31:48.892Z,51.83
2018-09-06T20:34:16.720Z,53.50
2018-09-06T20:36:44.468Z,50.70
2018-09-06T20:39:12.085Z,52.53
2018-09-06T20:41:39.820Z,55.60
2018-09-06T20:44:07.541Z,52.30
2018-09-06T20:46:36.257Z,53.67
2018-09-06T20:49:04.195Z,51.67
2018-09-06T20:51:31.832Z,55.80
2018-09-06T20:53:59.744Z,55.57
2018-09-06T20:56:27.716Z,59.60
2018-09-06T20:58:55.361Z,57.13
2018-09-06T21:01:23.033Z,60.33
2018-09-06T21:03:50.578Z,52.87
2018-09-06T21:06:18.356Z,56.90
2018-09-06T21:08:46.258Z,58.97
2018-09-06T21:11:15.347Z,58.10
2018-09-06T21:13:42.884Z,57.00
2018-09-06T21:16:10.418Z,53.57
2018-09-06T21:18:38.229Z,55.10
2018-09-06T21:21:05.935Z,57.40
2018-09-06T21:23:33.885Z,59.90
2018-09-06T21:26:01.490Z,57.30
2018-09-06T21:28:29.077Z,59.20
2018-09-06T21:30:56.575Z,60.80
2018-09-06T21:33:24.092Z,57.57
2018-09-06T21:35:51.697Z,53.67
2018-09-06T21:38:19.297Z,55.40
2018-09-06T21:40:46.993Z,58.67
2018-09-06T21:43:14.545Z,56.83
2018-09-06T21:45:42.071Z,59.70
2018-09-06T21:48:09.556Z,59.83
2018-09-06T21:50:37.129Z,56.50
2018-09-06T21:53:04.728Z,59.10
2018-09-06T21:55:42.707Z,59.37
2018-09-06T21:58:10.359Z,60.57
2018-09-06T22:00:38.007Z,65.03
2018-09-06T22:03:11.536Z,59.93
2018-09-06T22:05:39.053Z,55.50
2018-09-06T22:08:06.521Z,63.10
2018-09-06T22:10:34.151Z,64.07
2018-09-06T22:13:01.858Z,66.83
2018-09-06T22:15:30.236Z,58.80
2018-09-06T22:17:58.063Z,60.73
2018-09-06T22:20:25.615Z,65.10
2018-09-06T22:22:53.228Z,62.23
2018-09-06T22:25:20.983Z,62.77
2018-09-06T22:27:48.785Z,64.77
2018-09-06T22:30:16.554Z,65.30
2018-09-06T22:32:44.183Z,62.30
2018-09-06T22:35:11.693Z,63.27
2018-09-06T22:37:39.320Z,64.50
2018-09-06T22:40:06.897Z,57.67
2018-09-06T22:42:34.432Z,63.33
2018-09-06T22:45:02.506Z,62.90
2018-09-06T22:47:30.168Z,58.37
2018-09-06T22:49:57.836Z,58.37
2018-09-06T22:52:25.787Z,63.00
2018-09-06T22:54:53.380Z,62.63
2018-09-06T22:57:20.871Z,63.83
2018-09-06T22:59:48.376Z,62.70
2018-09-06T23:02:16.026Z,63.40
2018-09-06T23:04:43.686Z,61.17
2018-09-06T23:07:11.269Z,60.63
2018-09-06T23:09:38.849Z,62.23
2018-09-06T23:12:06.475Z,62.03
2018-09-06T23:14:34.000Z,64.40
2018-09-06T23:17:01.636Z,60.63
2018-09-06T23:19:29.196Z,66.70
2018-09-06T23:21:56.912Z,71.27
2018-09-06T23:24:24.420Z,68.13
2018-09-06T23:26:52.544Z,66.80
2018-09-06T23:29:20.184Z,68.33
2018-09-06T23:31:47.838Z,70.57
2018-09-06T23:34:15.332Z,75.03
2018-09-06T23:36:42.904Z,66.20
2018-09-06T23:39:10.435Z,64.60
2018-09-06T23:41:37.940Z,68.80
2018-09-06T23:44:05.426Z,65.60
2018-09-06T23:46:33.018Z,67.60
2018-09-06T23:49:00.500Z,64.43
2018-09-06T23:51:28.169Z,71.90
2018-09-06T23:53:55.615Z,81.20
2018-09-06T23:56:23.238Z,77.37
2018-09-06T23:58:51.755Z,76.17
